Hovedside
METAR-TAF:

METAR-TAF

Lufthavner :

Sandefjord lufthavn. Torp

Sandefjord, Norge

breddegrad: 59-12N, lengdegrad: 010-16E, høyde over havet: 8 m

Gjeldene værobservasjon

Denne rapporten ble laget for 39 minutter siden, klokken 16:50 UTC
Vind 6 kt fra Nordøst, skiftende mellom Nord og Øst
Temperatur 26°C
Luftfuktighet 26%
Trykk 1026 hPa
Sikt 10 km eller mer
ingen skyer under 1500 m og ingen bygeskyer

METAR: ENTO 261650Z 05006KT 010V080 CAVOK 26/05 Q1026

Tid: 19:29 (17:29 UTC)

Varsel

Varsel gyldig fra 26. klokken 12 UTC til 27. klokken 12 UTC
Vind 8 kt fra Nordøst
Sikt 10 km eller mer
ingen skyer under 1500 m og ingen bygeskyer

TAF: ENTO 2612/2712 04008KT CAVOK

Værobservasjoner og værvarsel for over 4000 flyplasser (METAR- og TAF-rapporter).

Tilgjengelige stasjoner er representert av de røde og gule prikkene på kartet.

Hold musepekeren over prikken for å se navnet på stasjonen.

Klikk så for å se værobservasjoner og -varsler.

For å forandre kartet kan du klikke på den grønne knappen med svart kryss for å zoome inn, på den grønne knappen med strek for å zoome ut, eller på de grønne pilene for å se tilstøtende kart.


METAR-TAF: